Owensboro Daviess County Airport
KOWB : now visible

Airfield :











YOU CAN JOIN US ON...

 
LOGIN :

Register | Disclaimer

   EN    FR    IT 

 









Legend :    VFR   Marginal VFR   IFR   Intensive IFR   Very Intensive IFR
Visi :
Ceiling :
>= 8 km
>= 3000ft
5 to 8 km
1000 to 3000 ft
1500m to 5 km
500 to 1000 ft
800 to 1500m
200 to 500 ft
< 800m
< 200 ft
Symbols :   Thunderstorms  Fog  Heavy snow  Heavy precipitations  Wind > 20 kt







- Airport Elevation : 407 ft
- IATA code : OWB


KOWB - Owensboro Daviess County

CURRENT METAR :
  • 181556Z 19012KT 10SM -RA OVC060 18/16 A2977 RMK AO2 RAB34 SLP089 P0001 T01830156

EXPIRED METARs :
  • 181456Z 18012KT 10SM FEW031 BKN110 18/15 A2976 RMK AO2 RAE34 SLP086 P0000 60000 T01830150 58004
  • 181356Z 20013KT 10SM -RA OVC030 18/14 A2978 RMK AO2 RAB52 SLP091 P0000 T01830144

TAF KOWB
Valid from the 18 at 15:00 until the 19 at 12:00 UTC


181510Z 1815/1912 18012KT P6SM VCSH SCT030 OVC100
FM181600 19014G23KT P6SM VCSH BKN035 OVC080
FM182200 23013KT 5SM SHRA VCTS OVC045CB
FM190000 33011KT 3SM +SHRA BR OVC015
FM191100 34016G25KT P6SM OVC011
KZID FIR / North America



MET'MAP, your aeronautical weather chart ! - Copyright ORBIFLY December 2007 - Disclaimer

ORBIFLY MET'MAP TEAM :

Programming & Development : Alexandra Zaïnal
Concept & Development : Baudouin d'Aumeries
Co-Development & Prog : Marc-Olivier Méhu
Technical & hardware support : Manuel Goepfert

Contact : metmap@orbifly.com




SOURCES & CREDITS :

   NOAA       Earth
Advisory